createdAt,value
2023-05-09T00:00:13.717Z,13.63
2023-05-09T00:02:46.039Z,5.60
2023-05-09T00:05:13.186Z,5.13
2023-05-09T00:07:39.958Z,5.77
2023-05-09T00:10:07.023Z,8.93
2023-05-09T00:12:33.638Z,6.50
2023-05-09T00:15:00.277Z,4.70
2023-05-09T00:17:28.585Z,6.07
2023-05-09T00:19:55.521Z,4.30
2023-05-09T00:22:22.308Z,4.87
2023-05-09T00:24:49.475Z,6.93
2023-05-09T00:27:16.556Z,4.50
2023-05-09T00:29:43.561Z,4.93
2023-05-09T00:32:10.900Z,4.30
2023-05-09T00:34:38.045Z,7.63
2023-05-09T00:37:04.634Z,5.30
2023-05-09T00:39:31.296Z,4.27
2023-05-09T00:41:57.998Z,6.50
2023-05-09T00:44:24.648Z,7.73
2023-05-09T00:46:51.375Z,5.03
2023-05-09T00:49:18.034Z,6.13
2023-05-09T00:51:44.646Z,11.77
2023-05-09T00:54:12.075Z,6.30
2023-05-09T00:56:39.300Z,4.33
2023-05-09T00:59:06.559Z,5.20
2023-05-09T01:01:33.282Z,3.60
2023-05-09T01:04:00.238Z,4.80
2023-05-09T01:06:52.107Z,6.07
2023-05-09T01:09:42.935Z,4.20
2023-05-09T01:12:29.400Z,5.10
2023-05-09T01:15:17.815Z,5.47
2023-05-09T01:17:51.903Z,4.50
2023-05-09T01:20:39.988Z,5.87
2023-05-09T01:23:13.273Z,6.60
2023-05-09T01:26:03.090Z,4.07
2023-05-09T01:29:17.843Z,4.43
2023-05-09T01:31:45.690Z,12.10
2023-05-09T01:34:15.488Z,4.43
2023-05-09T01:36:43.537Z,6.70
2023-05-09T01:39:14.124Z,4.50
2023-05-09T01:41:41.026Z,5.10
2023-05-09T01:44:11.555Z,5.17
2023-05-09T01:46:38.355Z,4.40
2023-05-09T01:49:07.476Z,4.47
2023-05-09T01:51:35.158Z,5.13
2023-05-09T01:54:01.997Z,8.43
2023-05-09T01:56:29.183Z,10.13
2023-05-09T01:58:56.589Z,4.03
2023-05-09T02:01:24.252Z,7.03
2023-05-09T02:03:54.733Z,3.60
2023-05-09T02:06:23.509Z,6.27
2023-05-09T02:08:51.053Z,5.13
2023-05-09T02:11:17.721Z,8.80
2023-05-09T02:13:44.399Z,5.77
2023-05-09T02:16:12.166Z,5.53
2023-05-09T02:18:38.975Z,4.50
2023-05-09T02:21:06.220Z,4.20
2023-05-09T02:23:32.916Z,5.67
2023-05-09T02:25:59.739Z,3.90
2023-05-09T02:28:27.573Z,5.10
2023-05-09T02:30:55.060Z,4.93
2023-05-09T02:33:22.300Z,5.20
2023-05-09T02:35:49.444Z,4.40
2023-05-09T02:38:16.125Z,4.27
2023-05-09T02:40:43.896Z,3.87
2023-05-09T02:43:10.791Z,5.47
2023-05-09T02:45:37.477Z,4.10
2023-05-09T02:48:06.852Z,3.50
2023-05-09T02:50:35.030Z,3.40
2023-05-09T02:53:01.759Z,5.47
2023-05-09T02:55:28.551Z,5.70
2023-05-09T02:58:09.349Z,4.00
2023-05-09T03:00:39.376Z,4.70
2023-05-09T03:03:06.732Z,3.90
2023-05-09T03:05:33.513Z,4.63
2023-05-09T03:08:00.145Z,3.60
2023-05-09T03:10:26.799Z,3.60
2023-05-09T03:12:53.503Z,4.63
2023-05-09T03:15:22.089Z,5.53
2023-05-09T03:17:49.064Z,8.37
2023-05-09T03:20:15.925Z,4.97
2023-05-09T03:22:42.676Z,4.00
2023-05-09T03:25:11.467Z,3.93
2023-05-09T03:27:38.715Z,3.80
2023-05-09T03:30:09.303Z,5.30
2023-05-09T03:32:36.005Z,5.50
2023-05-09T03:35:02.746Z,3.40
2023-05-09T03:37:29.999Z,6.47
2023-05-09T03:39:59.905Z,4.43
2023-05-09T03:42:27.278Z,3.97
2023-05-09T03:44:58.030Z,7.23
2023-05-09T03:47:24.700Z,6.80
2023-05-09T03:49:51.445Z,11.80
2023-05-09T03:52:21.018Z,8.30
2023-05-09T03:54:48.545Z,4.30
2023-05-09T03:57:17.574Z,6.70
2023-05-09T03:59:45.999Z,5.90
2023-05-09T04:02:13.665Z,6.07
2023-05-09T04:04:40.454Z,8.33
2023-05-09T04:07:08.063Z,4.00
2023-05-09T04:09:35.403Z,4.23
2023-05-09T04:12:04.403Z,5.20
2023-05-09T04:14:32.210Z,6.93
2023-05-09T04:16:59.173Z,4.20
2023-05-09T04:19:25.891Z,4.73
2023-05-09T04:21:52.603Z,8.03
2023-05-09T04:24:29.215Z,5.70
2023-05-09T04:26:55.877Z,8.20
2023-05-09T04:29:26.224Z,5.20
2023-05-09T04:31:59.401Z,5.93
2023-05-09T04:34:27.691Z,8.50
2023-05-09T04:36:55.774Z,6.20
2023-05-09T04:39:27.214Z,11.67
2023-05-09T04:42:02.696Z,6.63
2023-05-09T04:44:29.353Z,7.10
2023-05-09T04:46:59.279Z,5.70
2023-05-09T04:49:25.847Z,8.03
2023-05-09T04:51:52.580Z,6.63
2023-05-09T04:54:19.174Z,9.93
2023-05-09T04:56:47.405Z,7.33
2023-05-09T04:59:18.218Z,7.90
2023-05-09T05:01:47.378Z,8.27
2023-05-09T05:04:14.402Z,6.70
2023-05-09T05:06:50.070Z,6.67
2023-05-09T05:09:17.003Z,5.90
2023-05-09T05:11:57.110Z,7.20
2023-05-09T05:14:25.500Z,5.93
2023-05-09T05:16:52.666Z,8.10
2023-05-09T05:19:19.370Z,6.40
2023-05-09T05:21:49.109Z,6.77
2023-05-09T05:24:15.935Z,6.80
2023-05-09T05:26:43.323Z,6.70
2023-05-09T05:29:10.734Z,7.10
2023-05-09T05:31:37.510Z,8.07
2023-05-09T05:34:04.188Z,6.90
2023-05-09T05:36:32.362Z,7.10
2023-05-09T05:39:03.023Z,5.83
2023-05-09T05:41:38.903Z,5.90
2023-05-09T05:44:07.582Z,5.20
2023-05-09T05:46:35.048Z,8.13
2023-05-09T05:49:07.888Z,7.73
2023-05-09T05:51:34.874Z,6.03
2023-05-09T05:54:03.177Z,5.73
2023-05-09T05:56:34.614Z,6.30
2023-05-09T05:59:01.753Z,7.40
2023-05-09T06:01:31.532Z,7.37
2023-05-09T06:04:01.689Z,6.40
2023-05-09T06:06:31.273Z,5.60
2023-05-09T06:09:06.244Z,7.00
2023-05-09T06:11:32.909Z,10.90
2023-05-09T06:13:59.842Z,8.63
2023-05-09T06:16:30.412Z,7.20
2023-05-09T06:18:57.133Z,8.97
2023-05-09T06:21:23.817Z,5.83
2023-05-09T06:24:08.524Z,7.00
2023-05-09T06:26:42.892Z,5.73
2023-05-09T06:29:09.928Z,7.10
2023-05-09T06:31:39.175Z,9.30
2023-05-09T06:34:06.169Z,7.43
2023-05-09T06:36:33.570Z,6.00
2023-05-09T06:39:00.555Z,7.50
2023-05-09T06:41:27.517Z,6.10
2023-05-09T06:43:54.466Z,8.37
2023-05-09T06:46:32.973Z,8.20
2023-05-09T06:49:01.789Z,8.97
2023-05-09T06:51:28.960Z,8.07
2023-05-09T06:54:02.693Z,8.50
2023-05-09T06:56:32.396Z,6.10
2023-05-09T06:58:59.226Z,8.00
2023-05-09T07:01:26.052Z,16.33
2023-05-09T07:03:52.724Z,7.40
2023-05-09T07:06:22.133Z,6.30
2023-05-09T07:08:48.811Z,8.00
2023-05-09T07:11:16.297Z,7.87
2023-05-09T07:13:42.969Z,12.53
2023-05-09T07:16:09.696Z,8.50
2023-05-09T07:18:42.111Z,7.53
2023-05-09T07:21:09.087Z,6.60
2023-05-09T07:23:36.072Z,6.97
2023-05-09T07:26:02.854Z,7.33
2023-05-09T07:28:29.608Z,7.57
2023-05-09T07:30:58.738Z,8.97
2023-05-09T07:33:25.507Z,9.80
2023-05-09T07:35:53.093Z,9.97
2023-05-09T07:38:19.763Z,9.67
2023-05-09T07:40:46.415Z,7.63
2023-05-09T07:43:19.439Z,7.60
2023-05-09T07:45:47.145Z,7.10
2023-05-09T07:48:13.850Z,9.90
2023-05-09T07:50:46.765Z,9.27
2023-05-09T07:53:13.426Z,8.00
2023-05-09T07:55:44.888Z,9.50
2023-05-09T08:01:06.856Z,10.83
2023-05-09T08:03:33.703Z,9.70
2023-05-09T08:06:00.632Z,11.97
2023-05-09T08:08:39.091Z,9.57
2023-05-09T08:11:06.292Z,12.47
2023-05-09T08:13:33.052Z,9.13
2023-05-09T08:16:05.881Z,10.77
2023-05-09T08:18:32.660Z,11.10
2023-05-09T08:20:59.770Z,14.23
2023-05-09T08:23:37.411Z,10.40
2023-05-09T08:26:04.211Z,8.20
2023-05-09T08:28:30.873Z,10.60
2023-05-09T08:30:58.061Z,10.93
2023-05-09T08:33:33.715Z,9.77
2023-05-09T08:36:01.422Z,12.00
2023-05-09T08:38:28.715Z,11.70
2023-05-09T08:41:02.152Z,11.87
2023-05-09T08:43:29.814Z,10.23
2023-05-09T08:46:08.010Z,13.10
2023-05-09T08:48:37.677Z,11.43
2023-05-09T08:51:12.145Z,12.20
2023-05-09T08:53:42.091Z,12.53
2023-05-09T08:56:08.907Z,16.57
2023-05-09T08:58:35.873Z,13.10
2023-05-09T09:01:11.245Z,14.17
2023-05-09T09:03:39.538Z,16.27
2023-05-09T09:06:07.811Z,12.87
2023-05-09T09:08:45.195Z,12.63
2023-05-09T09:11:13.751Z,15.33
2023-05-09T09:13:43.556Z,14.53
2023-05-09T09:16:22.869Z,12.40
2023-05-09T09:19:20.364Z,15.47
2023-05-09T09:21:47.558Z,20.57
2023-05-09T09:24:14.837Z,12.57
2023-05-09T09:26:49.184Z,13.70
2023-05-09T09:29:17.491Z,11.90
2023-05-09T09:31:57.239Z,13.80
2023-05-09T09:34:24.059Z,13.73
2023-05-09T09:36:51.030Z,14.00
2023-05-09T09:39:27.892Z,13.70
2023-05-09T09:41:54.587Z,11.50
2023-05-09T09:44:23.592Z,11.73
2023-05-09T09:46:54.197Z,14.00
2023-05-09T09:49:26.918Z,13.43
2023-05-09T09:51:58.008Z,12.57
2023-05-09T09:54:28.255Z,12.90
2023-05-09T09:56:55.375Z,11.97
2023-05-09T09:59:26.730Z,13.17
2023-05-09T10:02:08.237Z,20.13
2023-05-09T10:04:41.508Z,11.30
2023-05-09T10:07:12.869Z,16.53
2023-05-09T10:09:51.057Z,14.97
2023-05-09T10:12:24.768Z,15.43
2023-05-09T10:15:01.946Z,13.77
2023-05-09T10:17:29.590Z,12.43
2023-05-09T10:19:56.915Z,14.73
2023-05-09T10:22:30.205Z,16.00
2023-05-09T10:25:15.725Z,15.40
2023-05-09T10:27:46.277Z,11.60
2023-05-09T10:30:17.447Z,11.93
2023-05-09T10:33:00.801Z,13.80
2023-05-09T10:35:36.696Z,12.73
2023-05-09T10:38:11.193Z,18.30
2023-05-09T10:40:40.616Z,13.57
2023-05-09T10:43:10.376Z,15.60
2023-05-09T10:45:46.474Z,17.57
2023-05-09T10:48:16.723Z,14.30
2023-05-09T10:50:43.837Z,14.00
2023-05-09T10:53:21.698Z,12.70
2023-05-09T10:56:07.132Z,15.50
2023-05-09T10:58:47.641Z,14.63
2023-05-09T11:01:14.547Z,12.17
2023-05-09T11:04:17.391Z,10.50
2023-05-09T11:06:55.152Z,12.20
2023-05-09T11:09:25.221Z,10.43
2023-05-09T11:12:09.623Z,12.13
2023-05-09T11:14:36.381Z,11.00
2023-05-09T11:17:21.681Z,10.93
2023-05-09T11:19:51.346Z,11.93
2023-05-09T11:22:21.905Z,12.30
2023-05-09T11:24:51.995Z,11.37
2023-05-09T11:27:23.076Z,13.53
2023-05-09T11:29:59.676Z,10.03
2023-05-09T11:32:34.326Z,10.73
2023-05-09T11:35:09.560Z,11.67
2023-05-09T11:38:05.211Z,10.63
2023-05-09T11:40:35.374Z,10.77
2023-05-09T11:43:09.689Z,9.00
2023-05-09T11:45:39.940Z,10.87
2023-05-09T11:48:10.453Z,10.70
2023-05-09T11:50:41.729Z,9.93
2023-05-09T11:53:12.501Z,8.93
2023-05-09T11:55:41.283Z,11.87
2023-05-09T11:58:08.083Z,8.80
2023-05-09T12:00:55.184Z,9.67
2023-05-09T12:03:22.019Z,10.37
2023-05-09T12:05:49.146Z,15.70
2023-05-09T12:08:23.546Z,9.57
2023-05-09T12:10:50.509Z,9.07
2023-05-09T12:13:18.176Z,9.07
2023-05-09T12:15:45.191Z,10.17
2023-05-09T12:18:12.004Z,11.67
2023-05-09T12:20:42.431Z,10.27
2023-05-09T12:23:11.369Z,8.80
2023-05-09T12:25:47.484Z,19.93
2023-05-09T12:28:14.262Z,12.40
2023-05-09T12:30:40.965Z,8.53
2023-05-09T12:33:12.492Z,8.97
2023-05-09T12:35:48.798Z,8.23
2023-05-09T12:38:25.441Z,8.43
2023-05-09T12:41:15.486Z,8.70
2023-05-09T12:43:59.979Z,11.53
2023-05-09T12:46:39.897Z,8.30
2023-05-09T12:49:06.589Z,9.63
2023-05-09T12:51:33.316Z,8.50
2023-05-09T12:54:17.386Z,10.20
2023-05-09T12:56:45.410Z,10.20
2023-05-09T12:59:14.997Z,8.27
2023-05-09T13:01:42.080Z,8.80
2023-05-09T13:04:10.534Z,8.30
2023-05-09T13:06:51.431Z,7.87
2023-05-09T13:09:18.929Z,7.30
2023-05-09T13:11:47.595Z,8.43
2023-05-09T13:14:15.270Z,7.30
2023-05-09T13:16:43.460Z,7.80
2023-05-09T13:19:10.941Z,7.70
2023-05-09T13:21:38.979Z,8.47
2023-05-09T13:24:06.338Z,7.53
2023-05-09T13:26:34.030Z,11.37
2023-05-09T13:29:00.901Z,7.70
2023-05-09T13:31:30.564Z,9.27
2023-05-09T13:34:04.884Z,10.73
2023-05-09T13:36:32.623Z,8.83
2023-05-09T13:38:59.370Z,8.43
2023-05-09T13:41:32.009Z,9.90
2023-05-09T13:43:59.956Z,12.07
2023-05-09T13:46:29.408Z,7.80
2023-05-09T13:49:04.629Z,11.80
2023-05-09T13:51:32.629Z,10.60
2023-05-09T13:54:02.454Z,8.40
2023-05-09T13:56:32.172Z,8.60
2023-05-09T13:59:08.065Z,8.73
2023-05-09T14:01:35.152Z,8.27
2023-05-09T14:04:02.488Z,7.90
2023-05-09T14:06:36.632Z,8.10
2023-05-09T14:09:04.562Z,10.13
2023-05-09T14:11:31.286Z,8.27
2023-05-09T14:14:09.154Z,9.40
2023-05-09T14:16:35.958Z,8.30
2023-05-09T14:19:02.714Z,9.30
2023-05-09T14:21:29.400Z,8.60
2023-05-09T14:24:03.911Z,7.53
2023-05-09T14:26:30.631Z,8.30
2023-05-09T14:28:59.812Z,8.60
2023-05-09T14:31:34.192Z,7.70
2023-05-09T14:34:01.027Z,8.10
2023-05-09T14:36:31.506Z,8.53
2023-05-09T14:39:01.324Z,8.33
2023-05-09T14:41:28.130Z,11.50
2023-05-09T14:44:02.146Z,6.90
2023-05-09T14:46:31.914Z,7.10
2023-05-09T14:49:04.020Z,7.23
2023-05-09T14:51:31.853Z,8.10
2023-05-09T14:54:02.557Z,8.40
2023-05-09T14:56:31.053Z,7.17
2023-05-09T14:59:00.625Z,7.40
2023-05-09T15:01:29.872Z,6.47
2023-05-09T15:04:06.091Z,6.43
2023-05-09T15:06:32.948Z,7.27
2023-05-09T15:09:02.719Z,6.70
2023-05-09T15:11:43.263Z,7.13
2023-05-09T15:14:14.032Z,8.33
2023-05-09T15:16:40.831Z,12.97
2023-05-09T15:19:08.401Z,7.70
2023-05-09T15:21:35.222Z,7.40
2023-05-09T15:24:02.521Z,11.00
2023-05-09T15:26:32.277Z,7.33
2023-05-09T15:29:02.303Z,7.60
2023-05-09T15:31:32.692Z,7.40
2023-05-09T15:34:05.622Z,8.40
2023-05-09T15:36:33.833Z,8.90
2023-05-09T15:39:05.136Z,8.63
2023-05-09T15:41:34.869Z,7.30
2023-05-09T15:44:01.493Z,7.73
2023-05-09T15:46:33.917Z,7.90
2023-05-09T15:49:08.222Z,11.77
2023-05-09T15:51:34.923Z,8.07
2023-05-09T15:54:01.641Z,8.37
2023-05-09T15:56:38.923Z,7.37
2023-05-09T15:59:05.705Z,12.93
2023-05-09T16:01:35.123Z,13.60
2023-05-09T16:04:02.286Z,8.27
2023-05-09T16:06:32.956Z,7.60
2023-05-09T16:08:59.703Z,7.60
2023-05-09T16:11:28.521Z,8.10
2023-05-09T16:13:58.347Z,8.90
2023-05-09T16:16:26.604Z,7.30
2023-05-09T16:18:53.471Z,9.10
2023-05-09T16:21:21.700Z,9.57
2023-05-09T16:23:58.480Z,7.87
2023-05-09T16:26:26.281Z,8.60
2023-05-09T16:28:53.199Z,7.63
2023-05-09T16:31:21.472Z,8.80
2023-05-09T16:33:48.857Z,7.27
2023-05-09T16:36:15.824Z,7.70
2023-05-09T16:38:42.497Z,6.50
2023-05-09T16:41:09.179Z,7.63
2023-05-09T16:43:35.978Z,6.80
2023-05-09T16:46:02.728Z,7.10
2023-05-09T16:48:35.438Z,6.70
2023-05-09T16:51:02.123Z,6.97
2023-05-09T16:53:29.181Z,9.70
2023-05-09T16:55:55.946Z,8.13
2023-05-09T16:58:23.244Z,8.27
2023-05-09T17:00:50.963Z,6.83
2023-05-09T17:03:17.858Z,7.53
2023-05-09T17:05:53.182Z,7.47
2023-05-09T17:08:22.480Z,6.73
2023-05-09T17:10:50.032Z,7.13
2023-05-09T17:13:17.564Z,9.90
2023-05-09T17:15:44.488Z,7.70
2023-05-09T17:18:17.042Z,7.03
2023-05-09T17:20:46.203Z,7.83
2023-05-09T17:23:13.200Z,8.43
2023-05-09T17:25:39.900Z,8.30
2023-05-09T17:28:08.698Z,8.00
2023-05-09T17:30:39.621Z,8.10
2023-05-09T17:33:06.386Z,7.33
2023-05-09T17:35:39.744Z,10.30
2023-05-09T17:38:06.493Z,6.93
2023-05-09T17:40:33.347Z,10.60
2023-05-09T17:43:03.154Z,7.50
2023-05-09T17:45:33.109Z,7.53
2023-05-09T17:48:01.608Z,6.70
2023-05-09T17:50:28.708Z,7.13
2023-05-09T17:52:58.064Z,7.23
2023-05-09T17:55:48.104Z,7.20
2023-05-09T17:58:17.172Z,8.53
2023-05-09T18:00:44.644Z,6.80
2023-05-09T18:03:13.633Z,7.77
2023-05-09T18:05:49.568Z,7.10
2023-05-09T18:08:16.869Z,8.63
2023-05-09T18:10:43.827Z,8.43
2023-05-09T18:13:19.053Z,6.47
2023-05-09T18:15:45.892Z,7.37
2023-05-09T18:18:16.008Z,6.83
2023-05-09T18:20:51.067Z,6.83
2023-05-09T18:23:34.123Z,6.60
2023-05-09T18:26:16.735Z,8.43
2023-05-09T18:31:49.281Z,8.40
2023-05-09T18:34:18.752Z,7.60
2023-05-09T18:36:59.959Z,7.90
2023-05-09T18:39:55.561Z,7.50
2023-05-09T18:42:43.904Z,11.77
2023-05-09T18:45:11.561Z,9.87
2023-05-09T18:47:46.069Z,8.90
2023-05-09T18:53:36.295Z,13.23
2023-05-09T18:56:06.103Z,9.20
2023-05-09T18:58:36.793Z,9.30
2023-05-09T19:01:11.651Z,13.30
2023-05-09T19:03:53.088Z,9.20
2023-05-09T19:06:20.283Z,12.03
2023-05-09T19:08:47.792Z,8.70
2023-05-09T19:11:22.545Z,12.33
2023-05-09T19:13:49.736Z,10.63
2023-05-09T19:16:18.784Z,9.60
2023-05-09T19:18:51.645Z,12.53
2023-05-09T19:21:18.886Z,14.27
2023-05-09T19:23:49.098Z,11.70
2023-05-09T19:29:08.546Z,13.33
2023-05-09T19:31:37.120Z,13.27
2023-05-09T19:34:03.925Z,10.47
2023-05-09T19:36:31.056Z,13.33
2023-05-09T19:39:08.709Z,12.80
2023-05-09T19:41:35.616Z,13.30
2023-05-09T19:44:04.377Z,14.30
2023-05-09T19:46:33.811Z,13.17
2023-05-09T19:49:00.932Z,13.70
2023-05-09T19:51:28.045Z,11.40
2023-05-09T19:53:54.752Z,13.60
2023-05-09T19:56:31.298Z,13.47
2023-05-09T19:58:57.983Z,13.00
2023-05-09T20:01:31.449Z,14.70
2023-05-09T20:04:00.778Z,12.93
2023-05-09T20:06:27.650Z,15.40
2023-05-09T20:08:55.783Z,15.77
2023-05-09T20:11:26.687Z,16.80
2023-05-09T20:13:53.606Z,11.70
2023-05-09T20:16:21.302Z,13.43
2023-05-09T20:18:50.711Z,13.73
2023-05-09T20:21:18.872Z,13.63
2023-05-09T20:23:46.109Z,16.90
2023-05-09T20:26:13.068Z,15.17
2023-05-09T20:28:39.792Z,14.07
2023-05-09T20:31:06.620Z,13.27
2023-05-09T20:33:33.443Z,14.33
2023-05-09T20:36:09.595Z,11.10
2023-05-09T20:38:36.452Z,12.70
2023-05-09T20:41:04.078Z,13.40
2023-05-09T20:43:38.462Z,13.60
2023-05-09T20:46:05.427Z,10.97
2023-05-09T20:48:32.492Z,12.27
2023-05-09T20:50:59.181Z,16.03
2023-05-09T20:53:27.683Z,13.57
2023-05-09T20:55:54.508Z,13.10
2023-05-09T20:58:21.309Z,15.00
2023-05-09T21:00:48.525Z,12.10
2023-05-09T21:03:15.547Z,14.93
2023-05-09T21:05:42.367Z,13.60
2023-05-09T21:08:09.058Z,14.67
2023-05-09T21:10:38.480Z,12.77
2023-05-09T21:13:05.172Z,14.00
2023-05-09T21:15:31.976Z,12.83
2023-05-09T21:17:58.830Z,14.57
2023-05-09T21:20:30.975Z,13.03
2023-05-09T21:22:57.637Z,12.30
2023-05-09T21:25:24.449Z,13.83
2023-05-09T21:27:51.093Z,11.90
2023-05-09T21:30:18.022Z,10.40
2023-05-09T21:32:45.044Z,10.67
2023-05-09T21:35:15.459Z,12.00
2023-05-09T21:37:42.584Z,11.03
2023-05-09T21:40:10.255Z,10.30
2023-05-09T21:42:37.733Z,8.30
2023-05-09T21:45:13.043Z,9.00
2023-05-09T21:47:40.267Z,7.50
2023-05-09T21:50:07.379Z,7.73
2023-05-09T21:52:36.465Z,10.10
2023-05-09T21:55:03.444Z,6.87
2023-05-09T21:57:30.099Z,10.63
2023-05-09T22:00:07.906Z,6.70
2023-05-09T22:02:41.016Z,5.90
2023-05-09T22:05:08.163Z,6.83
2023-05-09T22:07:38.442Z,6.77
2023-05-09T22:10:05.947Z,6.30
2023-05-09T22:12:33.639Z,4.33
2023-05-09T22:15:00.297Z,5.00
2023-05-09T22:17:27.104Z,5.17
2023-05-09T22:19:59.238Z,5.07
2023-05-09T22:22:27.045Z,4.90
2023-05-09T22:24:53.821Z,5.97
2023-05-09T22:27:32.241Z,5.97
2023-05-09T22:29:59.065Z,5.90
2023-05-09T22:32:25.779Z,7.50
2023-05-09T22:35:03.245Z,6.43
2023-05-09T22:37:29.889Z,5.13
2023-05-09T22:39:56.614Z,5.97
2023-05-09T22:42:23.268Z,5.90
2023-05-09T22:44:50.029Z,6.17
2023-05-09T22:47:21.994Z,6.90
2023-05-09T22:49:49.858Z,5.73
2023-05-09T22:52:17.123Z,5.83
2023-05-09T22:54:53.708Z,7.43
2023-05-09T22:57:20.607Z,7.13
2023-05-09T22:59:49.708Z,5.83
2023-05-09T23:02:22.258Z,5.87
2023-05-09T23:04:51.268Z,6.50
2023-05-09T23:07:18.001Z,6.03
2023-05-09T23:09:49.582Z,8.63
2023-05-09T23:12:18.509Z,6.93
2023-05-09T23:14:45.241Z,7.57
2023-05-09T23:17:12.014Z,5.97
2023-05-09T23:19:38.676Z,7.87
2023-05-09T23:22:08.085Z,7.30
2023-05-09T23:24:35.565Z,8.20
2023-05-09T23:27:05.468Z,7.90
2023-05-09T23:29:33.287Z,6.13
2023-05-09T23:31:59.965Z,10.77
2023-05-09T23:34:26.723Z,6.30
2023-05-09T23:36:53.723Z,7.30
2023-05-09T23:39:20.633Z,7.20
2023-05-09T23:41:47.285Z,9.00
2023-05-09T23:44:13.832Z,7.40
2023-05-09T23:46:46.041Z,7.57
2023-05-09T23:49:14.583Z,8.53
2023-05-09T23:51:41.338Z,7.70
2023-05-09T23:54:08.367Z,8.03
2023-05-09T23:56:36.498Z,9.67
2023-05-09T23:59:11.497Z,7.87
